Navasota, TX (77868)

10:46 AM CDT on August 30, 2014 (GMT -0500)
COLE'S CREEK | Change Station
CLOSE
Current Station
Personal Weather Station
Location: WASHINGTON, TX
Elevation: 259 ft
Nearby Weather Stations

Elev 259 ft 30.34 °N, 96.18 °W | Updated 5 seconds ago

Overcast
Overcast
85.5 °F
Feels Like 93 °F
N
6.7
Wind Variable Wind from NW
Gusts 6.7 mph

Today
High -- | Low -- °F
--% Chance of Precip.
Yesterday
High -- | Low -- °F
Precip. -- in
6:59 AM 7:49 PM
Waxing Crescent, 22% visible
Pressure 29.97 in
Visibility 10.0 miles
Clouds Mostly Cloudy 1700 ft
Heat Index 93 °F
Dew Point 73 °F
Humidity 67%
Rainfall 0.00 in
Snow Depth Not available.
UV 3 out of 12
Pollen 1.00 out of 12
Air Quality Not available.
Flu Activity Not available.
METAR K11R 301535Z AUTO 00000KT 10SM BKN017 28/23 A2997 RMK AO2 T02750230

More Conditions Fewer Conditions

Pressure 29.97 in
Visibility 10.0 miles
Clouds Mostly Cloudy 1700 ft
Heat Index 93 °F
Dew Point 73 °F
Humidity 67%
Rainfall 0.00 in
Snow Depth Not available.
UV 3 out of 12
Pollen 1.00 out of 12
Air Quality Not available.
Flu Activity Not available.
METAR K11R 301535Z AUTO 00000KT 10SM BKN017 28/23 A2997 RMK AO2 T02750230

More Conditions Fewer Conditions

10-Day Weather Forecast

Almanac

Astronomy

Aug. 30, 2014 Rise Set
Actual Time 6:59 AM CDT 7:49 PM CDT
Civil Twilight 6:35 AM CDT 8:13 PM CDT
Nautical Twilight 6:06 AM CDT 8:42 PM CDT
Astronomical Twilight 5:36 AM CDT 9:12 PM CDT
Moon 11:26 AM CDT 10:48 PM CDT
Length of Visible Light 13h 38m
Length of Day
12h 49m
Tomorrow will be 1m 44s shorter.
Waxing Crescent, 22% of the Moon is Illuminated
Today
Waxing Crescent
Sep 2
First Quarter
Sep 8
Full
Sep 15
Last Quarter
Sep 24
New

Today's Extremes

State Highs State Lows

Community

WunderPhotos

Upload Photos

1,748,550 photos uploaded!

WunderBlogs® & News

Nearby

Snow Depth

Station Depth Elevation
No new snow has been reported.

Earthquake Activity

City Distance Mag. Time & Date
No recent earthquake activity has been reported nearby.
Minimum magnitude displayed is 2.5.

Coastal Water Temperatures

Place Temperature
No Stations Reporting

Nearby Weather Stations